sensor_id;sensor_type;location;lat;lon;timestamp;P1;durP1;ratioP1;P2;durP2;ratioP2
59734;SDS011;64362;45.620;4.920;2023-05-10T00:01:21;2.33;;;0.95;;
59734;SDS011;64362;45.620;4.920;2023-05-10T00:03:46;1.33;;;0.90;;
59734;SDS011;64362;45.620;4.920;2023-05-10T00:06:12;2.28;;;0.80;;
59734;SDS011;64362;45.620;4.920;2023-05-10T00:08:37;1.98;;;0.85;;
59734;SDS011;64362;45.620;4.920;2023-05-10T00:11:03;2.97;;;0.95;;
59734;SDS011;64362;45.620;4.920;2023-05-10T00:13:28;1.85;;;0.85;;
59734;SDS011;64362;45.620;4.920;2023-05-10T00:15:54;1.80;;;0.70;;
59734;SDS011;64362;45.620;4.920;2023-05-10T00:18:19;1.55;;;0.80;;
59734;SDS011;64362;45.620;4.920;2023-05-10T00:20:45;2.05;;;1.02;;
59734;SDS011;64362;45.620;4.920;2023-05-10T00:23:11;1.67;;;0.70;;
59734;SDS011;64362;45.620;4.920;2023-05-10T00:25:37;4.10;;;1.00;;
59734;SDS011;64362;45.620;4.920;2023-05-10T00:28:02;1.40;;;0.68;;
59734;SDS011;64362;45.620;4.920;2023-05-10T00:30:28;1.92;;;1.02;;
59734;SDS011;64362;45.620;4.920;2023-05-10T00:32:53;1.60;;;0.63;;
59734;SDS011;64362;45.620;4.920;2023-05-10T00:35:19;1.35;;;0.77;;
59734;SDS011;64362;45.620;4.920;2023-05-10T00:37:45;1.95;;;0.90;;
59734;SDS011;64362;45.620;4.920;2023-05-10T00:40:10;0.93;;;0.60;;
59734;SDS011;64362;45.620;4.920;2023-05-10T00:42:36;1.20;;;0.77;;
59734;SDS011;64362;45.620;4.920;2023-05-10T00:45:02;2.53;;;0.88;;
59734;SDS011;64362;45.620;4.920;2023-05-10T00:47:28;2.10;;;0.80;;
59734;SDS011;64362;45.620;4.920;2023-05-10T00:49:55;2.88;;;0.88;;
59734;SDS011;64362;45.620;4.920;2023-05-10T00:52:21;1.08;;;0.63;;
59734;SDS011;64362;45.620;4.920;2023-05-10T00:54:48;1.30;;;0.85;;
59734;SDS011;64362;45.620;4.920;2023-05-10T00:57:14;1.63;;;0.90;;
59734;SDS011;64362;45.620;4.920;2023-05-10T00:59:39;1.58;;;0.73;;
59734;SDS011;64362;45.620;4.920;2023-05-10T01:02:06;1.45;;;0.70;;
59734;SDS011;64362;45.620;4.920;2023-05-10T01:04:31;2.05;;;0.60;;
59734;SDS011;64362;45.620;4.920;2023-05-10T01:06:58;1.20;;;0.60;;
59734;SDS011;64362;45.620;4.920;2023-05-10T01:09:23;2.50;;;0.88;;
59734;SDS011;64362;45.620;4.920;2023-05-10T01:11:51;1.63;;;0.55;;
59734;SDS011;64362;45.620;4.920;2023-05-10T01:14:17;1.55;;;0.57;;
59734;SDS011;64362;45.620;4.920;2023-05-10T01:16:43;2.00;;;0.60;;
59734;SDS011;64362;45.620;4.920;2023-05-10T01:19:12;1.65;;;0.70;;
59734;SDS011;64362;45.620;4.920;2023-05-10T01:21:47;1.13;;;0.68;;
59734;SDS011;64362;45.620;4.920;2023-05-10T01:24:38;0.77;;;0.55;;
59734;SDS011;64362;45.620;4.920;2023-05-10T01:38:47;0.93;;;0.60;;
59734;SDS011;64362;45.620;4.920;2023-05-10T01:44:05;1.05;;;0.60;;
59734;SDS011;64362;45.620;4.920;2023-05-10T01:46:44;2.10;;;0.85;;
59734;SDS011;64362;45.620;4.920;2023-05-10T01:49:23;1.25;;;0.68;;
59734;SDS011;64362;45.620;4.920;2023-05-10T01:51:51;0.65;;;0.50;;
59734;SDS011;64362;45.620;4.920;2023-05-10T01:54:20;0.73;;;0.50;;
59734;SDS011;64362;45.620;4.920;2023-05-10T01:56:55;1.38;;;0.60;;
59734;SDS011;64362;45.620;4.920;2023-05-10T01:59:24;1.80;;;0.60;;
59734;SDS011;64362;45.620;4.920;2023-05-10T02:01:53;1.00;;;0.60;;
59734;SDS011;64362;45.620;4.920;2023-05-10T02:04:19;1.80;;;0.50;;
59734;SDS011;64362;45.620;4.920;2023-05-10T02:06:47;2.45;;;0.50;;
59734;SDS011;64362;45.620;4.920;2023-05-10T02:09:13;0.88;;;0.60;;
59734;SDS011;64362;45.620;4.920;2023-05-10T02:11:39;1.45;;;0.70;;
59734;SDS011;64362;45.620;4.920;2023-05-10T02:14:07;1.60;;;0.50;;
59734;SDS011;64362;45.620;4.920;2023-05-10T02:16:34;1.15;;;0.73;;
59734;SDS011;64362;45.620;4.920;2023-05-10T02:19:01;1.20;;;0.65;;
59734;SDS011;64362;45.620;4.920;2023-05-10T02:21:27;1.85;;;0.55;;
59734;SDS011;64362;45.620;4.920;2023-05-10T02:23:53;1.42;;;0.52;;
59734;SDS011;64362;45.620;4.920;2023-05-10T02:26:20;1.67;;;0.57;;
59734;SDS011;64362;45.620;4.920;2023-05-10T02:28:47;1.15;;;0.52;;
59734;SDS011;64362;45.620;4.920;2023-05-10T02:31:13;0.95;;;0.57;;
59734;SDS011;64362;45.620;4.920;2023-05-10T02:33:39;1.17;;;0.50;;
59734;SDS011;64362;45.620;4.920;2023-05-10T02:36:06;1.60;;;0.52;;
59734;SDS011;64362;45.620;4.920;2023-05-10T02:38:32;1.00;;;0.52;;
59734;SDS011;64362;45.620;4.920;2023-05-10T02:40:58;1.35;;;0.65;;
59734;SDS011;64362;45.620;4.920;2023-05-10T02:43:24;1.02;;;0.50;;
59734;SDS011;64362;45.620;4.920;2023-05-10T02:45:50;1.75;;;0.50;;
59734;SDS011;64362;45.620;4.920;2023-05-10T02:48:16;1.00;;;0.70;;
59734;SDS011;64362;45.620;4.920;2023-05-10T02:50:43;2.13;;;0.50;;
59734;SDS011;64362;45.620;4.920;2023-05-10T02:53:10;1.08;;;0.50;;
59734;SDS011;64362;45.620;4.920;2023-05-10T02:55:41;0.98;;;0.47;;
59734;SDS011;64362;45.620;4.920;2023-05-10T02:58:11;0.80;;;0.50;;
59734;SDS011;64362;45.620;4.920;2023-05-10T03:00:36;1.30;;;0.60;;
59734;SDS011;64362;45.620;4.920;2023-05-10T03:03:02;1.33;;;0.60;;
59734;SDS011;64362;45.620;4.920;2023-05-10T03:05:28;1.27;;;0.45;;
59734;SDS011;64362;45.620;4.920;2023-05-10T03:07:54;1.08;;;0.40;;
59734;SDS011;64362;45.620;4.920;2023-05-10T03:10:20;1.08;;;0.47;;
59734;SDS011;64362;45.620;4.920;2023-05-10T03:15:59;0.85;;;0.52;;
59734;SDS011;64362;45.620;4.920;2023-05-10T03:18:40;1.50;;;0.50;;
59734;SDS011;64362;45.620;4.920;2023-05-10T03:21:10;1.38;;;0.30;;
59734;SDS011;64362;45.620;4.920;2023-05-10T03:26:04;1.73;;;0.47;;
59734;SDS011;64362;45.620;4.920;2023-05-10T03:28:31;1.95;;;0.50;;
59734;SDS011;64362;45.620;4.920;2023-05-10T03:30:57;1.60;;;0.45;;
59734;SDS011;64362;45.620;4.920;2023-05-10T03:33:24;1.05;;;0.50;;
59734;SDS011;64362;45.620;4.920;2023-05-10T03:35:49;0.75;;;0.40;;
59734;SDS011;64362;45.620;4.920;2023-05-10T03:38:15;2.63;;;0.30;;
59734;SDS011;64362;45.620;4.920;2023-05-10T03:40:41;0.60;;;0.50;;
59734;SDS011;64362;45.620;4.920;2023-05-10T03:43:07;0.80;;;0.40;;
59734;SDS011;64362;45.620;4.920;2023-05-10T03:45:32;2.60;;;0.68;;
59734;SDS011;64362;45.620;4.920;2023-05-10T03:47:58;2.70;;;1.40;;
59734;SDS011;64362;45.620;4.920;2023-05-10T03:50:24;1.27;;;0.60;;
59734;SDS011;64362;45.620;4.920;2023-05-10T03:52:49;2.47;;;0.70;;
59734;SDS011;64362;45.620;4.920;2023-05-10T03:55:15;2.08;;;0.50;;
59734;SDS011;64362;45.620;4.920;2023-05-10T03:57:41;1.35;;;0.70;;
59734;SDS011;64362;45.620;4.920;2023-05-10T04:00:07;1.63;;;0.60;;
59734;SDS011;64362;45.620;4.920;2023-05-10T04:02:42;4.03;;;0.70;;
59734;SDS011;64362;45.620;4.920;2023-05-10T04:05:11;2.38;;;0.70;;
59734;SDS011;64362;45.620;4.920;2023-05-10T04:07:36;2.00;;;0.50;;
59734;SDS011;64362;45.620;4.920;2023-05-10T04:10:02;2.85;;;1.02;;
59734;SDS011;64362;45.620;4.920;2023-05-10T04:12:28;1.45;;;0.57;;
59734;SDS011;64362;45.620;4.920;2023-05-10T04:14:53;1.55;;;0.60;;
59734;SDS011;64362;45.620;4.920;2023-05-10T04:17:19;2.90;;;0.65;;
59734;SDS011;64362;45.620;4.920;2023-05-10T04:19:44;1.38;;;0.50;;
59734;SDS011;64362;45.620;4.920;2023-05-10T04:22:10;1.58;;;0.52;;
59734;SDS011;64362;45.620;4.920;2023-05-10T04:24:35;3.65;;;0.50;;
59734;SDS011;64362;45.620;4.920;2023-05-10T04:27:01;1.13;;;0.50;;
59734;SDS011;64362;45.620;4.920;2023-05-10T04:29:26;1.80;;;0.60;;
59734;SDS011;64362;45.620;4.920;2023-05-10T04:31:52;1.45;;;0.50;;
59734;SDS011;64362;45.620;4.920;2023-05-10T04:34:20;1.13;;;0.50;;
59734;SDS011;64362;45.620;4.920;2023-05-10T04:36:45;2.22;;;0.60;;
59734;SDS011;64362;45.620;4.920;2023-05-10T04:39:11;0.63;;;0.40;;
59734;SDS011;64362;45.620;4.920;2023-05-10T04:41:37;1.08;;;0.60;;
59734;SDS011;64362;45.620;4.920;2023-05-10T04:44:03;1.30;;;0.47;;
59734;SDS011;64362;45.620;4.920;2023-05-10T04:46:28;2.67;;;0.50;;
59734;SDS011;64362;45.620;4.920;2023-05-10T04:48:54;2.03;;;0.60;;
59734;SDS011;64362;45.620;4.920;2023-05-10T04:51:19;1.42;;;0.60;;
59734;SDS011;64362;45.620;4.920;2023-05-10T04:53:45;1.95;;;0.57;;
59734;SDS011;64362;45.620;4.920;2023-05-10T04:56:10;1.27;;;0.40;;
59734;SDS011;64362;45.620;4.920;2023-05-10T04:58:36;2.75;;;0.60;;
59734;SDS011;64362;45.620;4.920;2023-05-10T05:01:08;1.52;;;0.55;;
59734;SDS011;64362;45.620;4.920;2023-05-10T05:03:34;1.55;;;0.60;;
59734;SDS011;64362;45.620;4.920;2023-05-10T05:06:00;1.30;;;0.65;;
59734;SDS011;64362;45.620;4.920;2023-05-10T05:08:25;2.28;;;0.57;;
59734;SDS011;64362;45.620;4.920;2023-05-10T05:10:51;2.17;;;0.60;;
59734;SDS011;64362;45.620;4.920;2023-05-10T05:13:17;1.02;;;0.50;;
59734;SDS011;64362;45.620;4.920;2023-05-10T05:15:42;2.00;;;0.60;;
59734;SDS011;64362;45.620;4.920;2023-05-10T05:18:08;1.13;;;0.50;;
59734;SDS011;64362;45.620;4.920;2023-05-10T05:20:33;1.38;;;0.70;;
59734;SDS011;64362;45.620;4.920;2023-05-10T05:22:59;1.52;;;0.45;;
59734;SDS011;64362;45.620;4.920;2023-05-10T05:25:25;1.77;;;0.73;;
59734;SDS011;64362;45.620;4.920;2023-05-10T05:27:50;2.15;;;0.60;;
59734;SDS011;64362;45.620;4.920;2023-05-10T05:30:16;2.47;;;0.70;;
59734;SDS011;64362;45.620;4.920;2023-05-10T05:32:41;1.63;;;0.68;;
59734;SDS011;64362;45.620;4.920;2023-05-10T05:35:07;1.92;;;0.82;;
59734;SDS011;64362;45.620;4.920;2023-05-10T05:37:33;2.15;;;0.60;;
59734;SDS011;64362;45.620;4.920;2023-05-10T05:39:58;3.00;;;0.63;;
59734;SDS011;64362;45.620;4.920;2023-05-10T05:42:26;3.40;;;0.60;;
59734;SDS011;64362;45.620;4.920;2023-05-10T05:44:52;1.05;;;0.70;;
59734;SDS011;64362;45.620;4.920;2023-05-10T05:47:18;1.65;;;0.70;;
59734;SDS011;64362;45.620;4.920;2023-05-10T05:49:43;3.58;;;0.70;;
59734;SDS011;64362;45.620;4.920;2023-05-10T05:52:12;1.70;;;0.60;;
59734;SDS011;64362;45.620;4.920;2023-05-10T05:54:37;1.88;;;0.82;;
59734;SDS011;64362;45.620;4.920;2023-05-10T05:57:03;2.65;;;0.80;;
59734;SDS011;64362;45.620;4.920;2023-05-10T05:59:29;3.63;;;0.77;;
59734;SDS011;64362;45.620;4.920;2023-05-10T06:01:54;3.35;;;1.13;;
59734;SDS011;64362;45.620;4.920;2023-05-10T06:04:20;3.95;;;1.33;;
59734;SDS011;64362;45.620;4.920;2023-05-10T06:06:45;3.38;;;0.75;;
59734;SDS011;64362;45.620;4.920;2023-05-10T06:09:11;6.38;;;1.00;;
59734;SDS011;64362;45.620;4.920;2023-05-10T06:11:36;3.60;;;0.85;;
59734;SDS011;64362;45.620;4.920;2023-05-10T06:14:02;3.00;;;0.90;;
59734;SDS011;64362;45.620;4.920;2023-05-10T06:16:33;3.95;;;0.80;;
59734;SDS011;64362;45.620;4.920;2023-05-10T06:18:59;3.10;;;0.85;;
59734;SDS011;64362;45.620;4.920;2023-05-10T06:21:24;5.35;;;1.35;;
59734;SDS011;64362;45.620;4.920;2023-05-10T06:23:50;8.43;;;1.42;;
59734;SDS011;64362;45.620;4.920;2023-05-10T06:26:16;3.17;;;1.00;;
59734;SDS011;64362;45.620;4.920;2023-05-10T06:28:41;4.15;;;1.23;;
59734;SDS011;64362;45.620;4.920;2023-05-10T06:31:07;3.50;;;0.90;;
59734;SDS011;64362;45.620;4.920;2023-05-10T06:33:33;4.35;;;1.00;;
59734;SDS011;64362;45.620;4.920;2023-05-10T06:35:58;5.40;;;1.02;;
59734;SDS011;64362;45.620;4.920;2023-05-10T06:38:24;5.30;;;1.25;;
59734;SDS011;64362;45.620;4.920;2023-05-10T06:40:50;3.92;;;1.00;;
59734;SDS011;64362;45.620;4.920;2023-05-10T06:43:15;4.15;;;1.10;;
59734;SDS011;64362;45.620;4.920;2023-05-10T06:45:41;5.18;;;1.05;;
59734;SDS011;64362;45.620;4.920;2023-05-10T06:48:06;2.30;;;0.90;;
59734;SDS011;64362;45.620;4.920;2023-05-10T06:50:32;4.43;;;0.88;;
59734;SDS011;64362;45.620;4.920;2023-05-10T06:52:58;3.20;;;1.02;;
59734;SDS011;64362;45.620;4.920;2023-05-10T06:55:24;2.90;;;0.90;;
59734;SDS011;64362;45.620;4.920;2023-05-10T06:57:49;3.60;;;0.80;;
59734;SDS011;64362;45.620;4.920;2023-05-10T07:00:15;5.43;;;1.13;;
59734;SDS011;64362;45.620;4.920;2023-05-10T07:02:42;3.92;;;1.15;;
59734;SDS011;64362;45.620;4.920;2023-05-10T07:05:07;2.58;;;0.82;;
59734;SDS011;64362;45.620;4.920;2023-05-10T07:07:33;3.13;;;0.93;;
59734;SDS011;64362;45.620;4.920;2023-05-10T07:09:59;3.40;;;1.05;;
59734;SDS011;64362;45.620;4.920;2023-05-10T07:12:24;2.33;;;1.15;;
59734;SDS011;64362;45.620;4.920;2023-05-10T07:14:50;4.40;;;1.30;;
59734;SDS011;64362;45.620;4.920;2023-05-10T07:17:16;2.67;;;1.10;;
59734;SDS011;64362;45.620;4.920;2023-05-10T07:19:41;2.83;;;0.90;;
59734;SDS011;64362;45.620;4.920;2023-05-10T07:22:06;3.15;;;1.02;;
59734;SDS011;64362;45.620;4.920;2023-05-10T07:24:32;3.70;;;1.48;;
59734;SDS011;64362;45.620;4.920;2023-05-10T07:26:58;3.35;;;0.88;;
59734;SDS011;64362;45.620;4.920;2023-05-10T07:29:23;5.30;;;1.17;;
59734;SDS011;64362;45.620;4.920;2023-05-10T07:31:49;3.20;;;1.23;;
59734;SDS011;64362;45.620;4.920;2023-05-10T07:34:15;3.03;;;1.00;;
59734;SDS011;64362;45.620;4.920;2023-05-10T07:36:40;4.18;;;0.90;;
59734;SDS011;64362;45.620;4.920;2023-05-10T07:39:06;3.85;;;1.15;;
59734;SDS011;64362;45.620;4.920;2023-05-10T07:41:32;3.55;;;1.00;;
59734;SDS011;64362;45.620;4.920;2023-05-10T07:43:57;3.58;;;0.85;;
59734;SDS011;64362;45.620;4.920;2023-05-10T07:46:23;3.83;;;1.00;;
59734;SDS011;64362;45.620;4.920;2023-05-10T07:48:48;3.13;;;1.00;;
59734;SDS011;64362;45.620;4.920;2023-05-10T07:51:14;3.22;;;1.20;;
59734;SDS011;64362;45.620;4.920;2023-05-10T07:53:39;2.83;;;1.20;;
59734;SDS011;64362;45.620;4.920;2023-05-10T07:56:22;2.00;;;0.93;;
59734;SDS011;64362;45.620;4.920;2023-05-10T07:58:52;2.10;;;1.00;;
59734;SDS011;64362;45.620;4.920;2023-05-10T08:01:18;3.22;;;0.85;;
59734;SDS011;64362;45.620;4.920;2023-05-10T08:03:44;1.88;;;0.80;;
59734;SDS011;64362;45.620;4.920;2023-05-10T08:06:10;4.20;;;1.20;;
59734;SDS011;64362;45.620;4.920;2023-05-10T08:08:36;2.75;;;0.98;;
59734;SDS011;64362;45.620;4.920;2023-05-10T08:11:01;3.67;;;1.02;;
59734;SDS011;64362;45.620;4.920;2023-05-10T08:13:27;3.25;;;1.05;;
59734;SDS011;64362;45.620;4.920;2023-05-10T08:15:52;2.80;;;0.93;;
59734;SDS011;64362;45.620;4.920;2023-05-10T08:18:18;2.38;;;0.80;;
59734;SDS011;64362;45.620;4.920;2023-05-10T08:20:44;4.22;;;0.98;;
59734;SDS011;64362;45.620;4.920;2023-05-10T08:23:11;3.67;;;1.08;;
59734;SDS011;64362;45.620;4.920;2023-05-10T08:25:37;2.70;;;0.93;;
59734;SDS011;64362;45.620;4.920;2023-05-10T08:28:02;4.45;;;1.10;;
59734;SDS011;64362;45.620;4.920;2023-05-10T08:30:28;4.28;;;0.98;;
59734;SDS011;64362;45.620;4.920;2023-05-10T08:32:54;3.88;;;1.38;;
59734;SDS011;64362;45.620;4.920;2023-05-10T08:35:19;2.65;;;0.93;;
59734;SDS011;64362;45.620;4.920;2023-05-10T08:37:45;2.92;;;1.05;;
59734;SDS011;64362;45.620;4.920;2023-05-10T08:40:11;2.80;;;1.05;;
59734;SDS011;64362;45.620;4.920;2023-05-10T08:42:38;4.50;;;1.17;;
59734;SDS011;64362;45.620;4.920;2023-05-10T08:45:06;1.58;;;0.75;;
59734;SDS011;64362;45.620;4.920;2023-05-10T08:47:32;5.05;;;1.05;;
59734;SDS011;64362;45.620;4.920;2023-05-10T08:49:59;1.80;;;1.00;;
59734;SDS011;64362;45.620;4.920;2023-05-10T08:52:26;3.00;;;0.80;;
59734;SDS011;64362;45.620;4.920;2023-05-10T08:54:52;2.42;;;0.90;;
59734;SDS011;64362;45.620;4.920;2023-05-10T08:57:18;2.28;;;1.02;;
59734;SDS011;64362;45.620;4.920;2023-05-10T08:59:44;3.78;;;1.10;;
59734;SDS011;64362;45.620;4.920;2023-05-10T09:02:10;3.05;;;0.90;;
59734;SDS011;64362;45.620;4.920;2023-05-10T09:04:37;2.67;;;0.82;;
59734;SDS011;64362;45.620;4.920;2023-05-10T09:07:02;2.90;;;1.00;;
59734;SDS011;64362;45.620;4.920;2023-05-10T09:09:28;2.97;;;1.30;;
59734;SDS011;64362;45.620;4.920;2023-05-10T09:11:54;3.47;;;1.05;;
59734;SDS011;64362;45.620;4.920;2023-05-10T09:14:19;1.92;;;0.80;;
59734;SDS011;64362;45.620;4.920;2023-05-10T09:16:45;2.58;;;1.02;;
59734;SDS011;64362;45.620;4.920;2023-05-10T09:19:11;3.60;;;1.00;;
59734;SDS011;64362;45.620;4.920;2023-05-10T09:21:36;3.15;;;0.95;;
59734;SDS011;64362;45.620;4.920;2023-05-10T09:24:05;2.78;;;1.02;;
59734;SDS011;64362;45.620;4.920;2023-05-10T09:26:31;2.55;;;0.82;;
59734;SDS011;64362;45.620;4.920;2023-05-10T09:28:57;3.58;;;1.20;;
59734;SDS011;64362;45.620;4.920;2023-05-10T09:31:24;2.08;;;1.00;;
59734;SDS011;64362;45.620;4.920;2023-05-10T09:33:51;1.70;;;0.85;;
59734;SDS011;64362;45.620;4.920;2023-05-10T09:36:16;2.03;;;1.00;;
59734;SDS011;64362;45.620;4.920;2023-05-10T09:38:46;2.97;;;1.40;;
59734;SDS011;64362;45.620;4.920;2023-05-10T09:41:20;3.30;;;1.17;;
59734;SDS011;64362;45.620;4.920;2023-05-10T09:43:46;2.03;;;0.80;;
59734;SDS011;64362;45.620;4.920;2023-05-10T09:46:12;5.28;;;1.20;;
59734;SDS011;64362;45.620;4.920;2023-05-10T09:48:45;3.17;;;1.30;;
59734;SDS011;64362;45.620;4.920;2023-05-10T09:51:18;3.05;;;1.27;;
59734;SDS011;64362;45.620;4.920;2023-05-10T09:53:45;3.35;;;1.00;;
59734;SDS011;64362;45.620;4.920;2023-05-10T09:56:11;3.10;;;1.00;;
59734;SDS011;64362;45.620;4.920;2023-05-10T09:58:36;3.10;;;1.02;;
59734;SDS011;64362;45.620;4.920;2023-05-10T10:01:03;2.95;;;0.88;;
59734;SDS011;64362;45.620;4.920;2023-05-10T10:03:28;3.55;;;1.10;;
59734;SDS011;64362;45.620;4.920;2023-05-10T10:05:55;2.40;;;1.02;;
59734;SDS011;64362;45.620;4.920;2023-05-10T10:08:21;2.58;;;1.10;;
59734;SDS011;64362;45.620;4.920;2023-05-10T10:10:46;2.55;;;1.20;;
59734;SDS011;64362;45.620;4.920;2023-05-10T10:13:12;5.38;;;1.30;;
59734;SDS011;64362;45.620;4.920;2023-05-10T10:15:38;1.95;;;1.10;;
59734;SDS011;64362;45.620;4.920;2023-05-10T10:18:03;3.13;;;0.98;;
59734;SDS011;64362;45.620;4.920;2023-05-10T10:20:30;2.60;;;0.95;;
59734;SDS011;64362;45.620;4.920;2023-05-10T10:22:56;2.90;;;0.90;;
59734;SDS011;64362;45.620;4.920;2023-05-10T10:25:21;2.72;;;1.02;;
59734;SDS011;64362;45.620;4.920;2023-05-10T10:30:35;2.28;;;0.85;;
59734;SDS011;64362;45.620;4.920;2023-05-10T10:35:31;3.17;;;1.13;;
59734;SDS011;64362;45.620;4.920;2023-05-10T10:37:57;2.35;;;0.90;;
59734;SDS011;64362;45.620;4.920;2023-05-10T10:42:52;2.78;;;1.13;;
59734;SDS011;64362;45.620;4.920;2023-05-10T10:45:18;2.65;;;1.20;;
59734;SDS011;64362;45.620;4.920;2023-05-10T10:47:44;3.45;;;1.02;;
59734;SDS011;64362;45.620;4.920;2023-05-10T10:50:10;2.53;;;1.10;;
59734;SDS011;64362;45.620;4.920;2023-05-10T10:52:41;4.70;;;1.75;;
59734;SDS011;64362;45.620;4.920;2023-05-10T11:00:22;2.78;;;1.33;;
59734;SDS011;64362;45.620;4.920;2023-05-10T11:02:53;2.50;;;1.10;;
59734;SDS011;64362;45.620;4.920;2023-05-10T11:10:34;2.60;;;1.00;;
59734;SDS011;64362;45.620;4.920;2023-05-10T11:13:06;3.75;;;1.40;;
59734;SDS011;64362;45.620;4.920;2023-05-10T11:15:34;3.25;;;1.10;;
59734;SDS011;64362;45.620;4.920;2023-05-10T11:20:42;2.47;;;1.00;;
59734;SDS011;64362;45.620;4.920;2023-05-10T11:23:11;3.15;;;1.20;;
59734;SDS011;64362;45.620;4.920;2023-05-10T11:25:44;2.45;;;0.93;;
59734;SDS011;64362;45.620;4.920;2023-05-10T11:28:11;3.17;;;1.13;;
59734;SDS011;64362;45.620;4.920;2023-05-10T11:30:40;2.08;;;0.82;;
59734;SDS011;64362;45.620;4.920;2023-05-10T11:33:07;5.57;;;1.23;;
59734;SDS011;64362;45.620;4.920;2023-05-10T11:35:37;3.47;;;1.13;;
59734;SDS011;64362;45.620;4.920;2023-05-10T11:38:07;2.80;;;1.02;;
59734;SDS011;64362;45.620;4.920;2023-05-10T11:40:33;2.95;;;1.15;;
59734;SDS011;64362;45.620;4.920;2023-05-10T11:42:59;2.15;;;1.10;;
59734;SDS011;64362;45.620;4.920;2023-05-10T11:45:25;3.10;;;1.25;;
59734;SDS011;64362;45.620;4.920;2023-05-10T11:47:51;3.50;;;1.33;;
59734;SDS011;64362;45.620;4.920;2023-05-10T11:50:17;2.45;;;1.10;;
59734;SDS011;64362;45.620;4.920;2023-05-10T11:52:42;2.95;;;1.00;;
59734;SDS011;64362;45.620;4.920;2023-05-10T11:55:08;2.58;;;1.00;;
59734;SDS011;64362;45.620;4.920;2023-05-10T11:57:34;5.00;;;1.23;;
59734;SDS011;64362;45.620;4.920;2023-05-10T12:00:03;3.05;;;1.10;;
59734;SDS011;64362;45.620;4.920;2023-05-10T12:02:32;2.00;;;1.13;;
59734;SDS011;64362;45.620;4.920;2023-05-10T12:04:58;2.95;;;1.13;;
59734;SDS011;64362;45.620;4.920;2023-05-10T12:07:25;3.40;;;1.20;;
59734;SDS011;64362;45.620;4.920;2023-05-10T12:10:10;2.42;;;1.00;;
59734;SDS011;64362;45.620;4.920;2023-05-10T12:12:46;2.33;;;0.93;;
59734;SDS011;64362;45.620;4.920;2023-05-10T12:15:23;3.10;;;1.00;;
59734;SDS011;64362;45.620;4.920;2023-05-10T12:17:50;2.90;;;1.02;;
59734;SDS011;64362;45.620;4.920;2023-05-10T12:20:26;1.92;;;1.00;;
59734;SDS011;64362;45.620;4.920;2023-05-10T12:22:54;3.20;;;1.23;;
59734;SDS011;64362;45.620;4.920;2023-05-10T12:25:21;2.53;;;1.33;;
59734;SDS011;64362;45.620;4.920;2023-05-10T12:27:51;1.30;;;0.88;;
59734;SDS011;64362;45.620;4.920;2023-05-10T12:30:30;1.77;;;1.20;;
59734;SDS011;64362;45.620;4.920;2023-05-10T12:33:30;2.67;;;0.90;;
59734;SDS011;64362;45.620;4.920;2023-05-10T12:35:49;2.40;;;0.90;;
59734;SDS011;64362;45.620;4.920;2023-05-10T12:40:55;2.65;;;0.95;;
59734;SDS011;64362;45.620;4.920;2023-05-10T12:43:24;3.38;;;1.10;;
59734;SDS011;64362;45.620;4.920;2023-05-10T12:45:50;2.78;;;1.13;;
59734;SDS011;64362;45.620;4.920;2023-05-10T12:48:16;3.28;;;1.23;;
59734;SDS011;64362;45.620;4.920;2023-05-10T12:50:41;2.20;;;1.08;;
59734;SDS011;64362;45.620;4.920;2023-05-10T12:53:06;2.40;;;1.00;;
59734;SDS011;64362;45.620;4.920;2023-05-10T12:55:32;2.55;;;1.35;;
59734;SDS011;64362;45.620;4.920;2023-05-10T12:57:57;3.05;;;1.05;;
59734;SDS011;64362;45.620;4.920;2023-05-10T13:00:23;2.72;;;1.10;;
59734;SDS011;64362;45.620;4.920;2023-05-10T13:02:49;3.13;;;1.10;;
59734;SDS011;64362;45.620;4.920;2023-05-10T13:05:14;3.53;;;1.27;;
59734;SDS011;64362;45.620;4.920;2023-05-10T13:07:40;2.35;;;1.20;;
59734;SDS011;64362;45.620;4.920;2023-05-10T13:10:06;2.72;;;1.17;;
59734;SDS011;64362;45.620;4.920;2023-05-10T13:12:31;2.15;;;0.90;;
59734;SDS011;64362;45.620;4.920;2023-05-10T13:14:57;2.50;;;1.00;;
59734;SDS011;64362;45.620;4.920;2023-05-10T13:17:22;1.70;;;1.00;;
59734;SDS011;64362;45.620;4.920;2023-05-10T13:19:48;1.73;;;0.95;;
59734;SDS011;64362;45.620;4.920;2023-05-10T13:22:13;2.38;;;1.20;;
59734;SDS011;64362;45.620;4.920;2023-05-10T13:24:39;3.03;;;1.13;;
59734;SDS011;64362;45.620;4.920;2023-05-10T13:27:05;3.35;;;1.30;;
59734;SDS011;64362;45.620;4.920;2023-05-10T13:29:30;2.03;;;1.17;;
59734;SDS011;64362;45.620;4.920;2023-05-10T13:31:56;3.17;;;1.30;;
59734;SDS011;64362;45.620;4.920;2023-05-10T13:34:21;2.35;;;0.98;;
59734;SDS011;64362;45.620;4.920;2023-05-10T13:36:47;3.17;;;1.30;;
59734;SDS011;64362;45.620;4.920;2023-05-10T13:39:13;4.15;;;1.10;;
59734;SDS011;64362;45.620;4.920;2023-05-10T13:41:38;5.10;;;1.55;;
59734;SDS011;64362;45.620;4.920;2023-05-10T13:44:04;2.42;;;1.17;;
59734;SDS011;64362;45.620;4.920;2023-05-10T13:46:29;2.25;;;1.00;;
59734;SDS011;64362;45.620;4.920;2023-05-10T13:48:56;4.65;;;2.10;;
59734;SDS011;64362;45.620;4.920;2023-05-10T13:51:22;2.83;;;1.10;;
59734;SDS011;64362;45.620;4.920;2023-05-10T13:53:47;3.47;;;1.30;;
59734;SDS011;64362;45.620;4.920;2023-05-10T13:56:13;2.88;;;1.00;;
59734;SDS011;64362;45.620;4.920;2023-05-10T13:58:39;1.90;;;1.00;;
59734;SDS011;64362;45.620;4.920;2023-05-10T14:01:04;3.15;;;1.20;;
59734;SDS011;64362;45.620;4.920;2023-05-10T14:03:30;2.65;;;1.05;;
59734;SDS011;64362;45.620;4.920;2023-05-10T14:05:56;2.53;;;0.90;;
59734;SDS011;64362;45.620;4.920;2023-05-10T14:08:21;2.25;;;1.00;;
59734;SDS011;64362;45.620;4.920;2023-05-10T14:10:47;1.83;;;0.80;;
59734;SDS011;64362;45.620;4.920;2023-05-10T14:13:14;2.80;;;1.10;;
59734;SDS011;64362;45.620;4.920;2023-05-10T14:15:40;4.22;;;1.10;;
59734;SDS011;64362;45.620;4.920;2023-05-10T14:18:06;3.88;;;1.25;;
59734;SDS011;64362;45.620;4.920;2023-05-10T14:20:31;2.88;;;1.20;;
59734;SDS011;64362;45.620;4.920;2023-05-10T14:22:59;1.70;;;1.02;;
59734;SDS011;64362;45.620;4.920;2023-05-10T14:25:25;3.08;;;0.98;;
59734;SDS011;64362;45.620;4.920;2023-05-10T14:27:50;4.65;;;1.00;;
59734;SDS011;64362;45.620;4.920;2023-05-10T14:30:16;2.88;;;1.27;;
59734;SDS011;64362;45.620;4.920;2023-05-10T14:32:42;3.90;;;1.20;;
59734;SDS011;64362;45.620;4.920;2023-05-10T14:35:07;3.50;;;1.10;;
59734;SDS011;64362;45.620;4.920;2023-05-10T14:37:33;4.47;;;1.13;;
59734;SDS011;64362;45.620;4.920;2023-05-10T14:39:58;2.97;;;1.40;;
59734;SDS011;64362;45.620;4.920;2023-05-10T14:42:24;2.60;;;1.20;;
59734;SDS011;64362;45.620;4.920;2023-05-10T14:44:49;3.95;;;1.17;;
59734;SDS011;64362;45.620;4.920;2023-05-10T14:47:15;2.88;;;1.13;;
59734;SDS011;64362;45.620;4.920;2023-05-10T14:49:40;2.45;;;1.02;;
59734;SDS011;64362;45.620;4.920;2023-05-10T14:52:06;2.92;;;1.00;;
59734;SDS011;64362;45.620;4.920;2023-05-10T14:54:31;3.42;;;1.27;;
59734;SDS011;64362;45.620;4.920;2023-05-10T14:56:58;2.65;;;1.08;;
59734;SDS011;64362;45.620;4.920;2023-05-10T14:59:25;3.50;;;1.10;;
59734;SDS011;64362;45.620;4.920;2023-05-10T15:01:50;2.92;;;1.42;;
59734;SDS011;64362;45.620;4.920;2023-05-10T15:04:16;2.15;;;1.02;;
59734;SDS011;64362;45.620;4.920;2023-05-10T15:06:41;3.33;;;1.20;;
59734;SDS011;64362;45.620;4.920;2023-05-10T15:09:07;2.50;;;1.10;;
59734;SDS011;64362;45.620;4.920;2023-05-10T15:11:33;4.50;;;1.30;;
59734;SDS011;64362;45.620;4.920;2023-05-10T15:13:58;2.60;;;1.13;;
59734;SDS011;64362;45.620;4.920;2023-05-10T15:16:23;1.92;;;1.10;;
59734;SDS011;64362;45.620;4.920;2023-05-10T15:18:50;3.05;;;1.05;;
59734;SDS011;64362;45.620;4.920;2023-05-10T15:21:15;3.33;;;1.27;;
59734;SDS011;64362;45.620;4.920;2023-05-10T15:23:41;2.70;;;1.13;;
59734;SDS011;64362;45.620;4.920;2023-05-10T15:26:06;3.47;;;1.20;;
59734;SDS011;64362;45.620;4.920;2023-05-10T15:28:32;3.65;;;1.00;;